Terminal Aerodrome Forecast
Issued by NWS Sioux Falls, SD

Home | Current Version | Previous Version | Graphics & Text | Print | Product List | Glossary On
Versions: 1 2 3 4 5 6 7 8 9 10 11 12 13 14 15 16 17 18 19 20 21 22 23 24 25
000
FTUS43 KFSD 261100
TAFFSD
TAF
KFSD 261131Z 2612/2712 04005KT P6SM SCT080 BKN250
     FM261600 09007KT P6SM SCT080 BKN250
     FM262000 11006KT P6SM BKN080
     FM270300 08004KT P6SM BKN060=

USA.gov is the U.S. government's official web portal to all federal, state and local government web resources and services.